EKRK Airport Information

Runway Information
Runway 03 Length 4921 ft width 105 ft
Elevation 127 ft Threshold 0 ft Heading 31
Runway 21 Length 4921 ft Width 105 ft
Elevation 146 ft Threshold 0 ft Heading 211
Runway 11 Length 5709 ft width 105 ft
Elevation 145 ft Threshold 0 ft Heading 116
Runway 29 Length 5709 ft Width 105 ft
Elevation 138 ft Threshold 193 ft Heading 296
Airport Frequencies
Type APP Name APP Frequency 125.525 MHZ
Type ATIS Name ATIS Frequency 123.8 MHZ
Type MISC Name HANDLING Frequency 130.225 MHZ
Type TWR Name TWR Frequency 118.9 MHZ
Type TWR Name Frequency 119.65 MHZ
Airport Navaids
Type NDB Name Roskilde Frequency 368 KHZ
Airport Weather Information & NOTAM
ADDS - METARS form results

(1710 UTC 20 January 2022)
Data provider http://aviationweather.gov/metar/data/
 
METAR text: EKRK 201650Z AUTO 34021G32KT 9999 -RA SCT026/// BKN049/// M01/M05 Q1016
Conditions at: EKRK (COPENHAGEN/ROSKI, DK) observed 1650 UTC 20 January 2022
Temperature: -1.0°C (30°F)
Dewpoint: -5.0°C (23°F) [RH = 74%]
Pressure (altimeter): 30.00 inches Hg (1016.0 mb)
Winds: from the NNW (340 degrees) at 24 MPH (21 knots; 10.8 m/s)
gusting to 37 MPH (32 knots; 16.5 m/s)
Visibility: 6 or more miles (10+ km)
Ceiling: 4900 feet AGL
Clouds: scattered clouds at 2600 feet AGL
broken clouds at 4900 feet AGL
Weather: -RA  (light rain)

METAR text: EKRK 201620Z AUTO 34020G33KT 310V010 9999 -RA BKN049/// 01/M08 Q1015
Conditions at: EKRK (COPENHAGEN/ROSKI, DK) observed 1620 UTC 20 January 2022
Temperature: 1.0°C (34°F)
Dewpoint: -8.0°C (18°F) [RH = 51%]
Pressure (altimeter): 29.97 inches Hg (1015.0 mb)
Winds: from the NNW (340 degrees) at 23 MPH (20 knots; 10.3 m/s)
gusting to 38 MPH (33 knots; 17.0 m/s)
Visibility: 6 or more miles (10+ km)
Ceiling: 4900 feet AGL
Clouds: broken clouds at 4900 feet AGL
Weather: -RA  (light rain)

Forecast for: EKRK (COPENHAGEN/ROSKI, DK)
Text: TAF EKRK 201416Z 2015/2024 32018KT 9999 SCT030
Forecast period: 1500 UTC 20 January 2022 to 0000 UTC 21 January 2022
Forecast type: FROM: standard forecast or significant change
Winds: from the NW (320 degrees) at 21 MPH (18 knots; 9.3 m/s)
Visibility: 6 or more miles (10+ km)
Ceiling: at least 12,000 feet AGL
Clouds: scattered clouds at 3000 feet AGL
Weather: no significant weather forecast for this period
Text: TEMPO 2015/2020 33020G32KT 2000 SHRASN SCT015 BKN025CB
Forecast period: 1500 to 2000 UTC 20 January 2022
Forecast type: TEMPORARY: The following changes expected for less than half the time period
Winds: from the NNW (330 degrees) at 23 MPH (20 knots; 10.3 m/s)
gusting to 37 MPH (32 knots; 16.5 m/s)
Visibility: 1.24 miles (2.00 km)
Ceiling: 2500 feet AGL
Clouds: scattered clouds at 1500 feet AGL
broken clouds at 2500 feet AGL
Weather: SHRA SHSN  (rain showers, snow showers)